sensor_id;sensor_type;location;lat;lon;timestamp;P1;durP1;ratioP1;P2;durP2;ratioP2
11098;SDS011;12223;42.650;23.364;2022-07-23T00:00:32;38.42;;;36.17;;
11098;SDS011;12223;42.650;23.364;2022-07-23T00:03:01;34.22;;;32.03;;
11098;SDS011;12223;42.650;23.364;2022-07-23T00:05:28;38.33;;;36.20;;
11098;SDS011;12223;42.650;23.364;2022-07-23T00:07:54;25.65;;;23.95;;
11098;SDS011;12223;42.650;23.364;2022-07-23T00:10:22;37.47;;;35.35;;
11098;SDS011;12223;42.650;23.364;2022-07-23T00:12:49;22.42;;;20.58;;
11098;SDS011;12223;42.650;23.364;2022-07-23T00:15:16;45.03;;;42.63;;
11098;SDS011;12223;42.650;23.364;2022-07-23T00:17:45;44.97;;;42.85;;
11098;SDS011;12223;42.650;23.364;2022-07-23T00:20:14;45.88;;;43.63;;
11098;SDS011;12223;42.650;23.364;2022-07-23T00:22:45;48.40;;;45.88;;
11098;SDS011;12223;42.650;23.364;2022-07-23T00:25:13;23.77;;;22.08;;
11098;SDS011;12223;42.650;23.364;2022-07-23T00:27:42;17.40;;;16.35;;
11098;SDS011;12223;42.650;23.364;2022-07-23T00:30:11;26.17;;;24.52;;
11098;SDS011;12223;42.650;23.364;2022-07-23T00:35:42;13.88;;;12.43;;
11098;SDS011;12223;42.650;23.364;2022-07-23T00:38:10;19.02;;;17.67;;
11098;SDS011;12223;42.650;23.364;2022-07-23T00:40:37;22.23;;;20.52;;
11098;SDS011;12223;42.650;23.364;2022-07-23T00:43:04;58.13;;;55.28;;
11098;SDS011;12223;42.650;23.364;2022-07-23T00:45:31;49.88;;;47.25;;
11098;SDS011;12223;42.650;23.364;2022-07-23T00:47:58;17.48;;;15.93;;
11098;SDS011;12223;42.650;23.364;2022-07-23T00:53:30;32.78;;;30.42;;
11098;SDS011;12223;42.650;23.364;2022-07-23T00:55:58;41.28;;;39.03;;
11098;SDS011;12223;42.650;23.364;2022-07-23T00:58:24;37.15;;;35.15;;
11098;SDS011;12223;42.650;23.364;2022-07-23T01:00:51;39.17;;;36.88;;
11098;SDS011;12223;42.650;23.364;2022-07-23T01:03:18;29.30;;;27.63;;
11098;SDS011;12223;42.650;23.364;2022-07-23T01:05:44;26.58;;;24.85;;
11098;SDS011;12223;42.650;23.364;2022-07-23T01:08:12;19.55;;;18.17;;
11098;SDS011;12223;42.650;23.364;2022-07-23T01:10:41;19.45;;;17.95;;
11098;SDS011;12223;42.650;23.364;2022-07-23T01:25:21;31.02;;;29.27;;
11098;SDS011;12223;42.650;23.364;2022-07-23T01:27:48;41.28;;;39.15;;
11098;SDS011;12223;42.650;23.364;2022-07-23T01:30:15;31.63;;;29.63;;
11098;SDS011;12223;42.650;23.364;2022-07-23T01:32:41;28.98;;;27.25;;
11098;SDS011;12223;42.650;23.364;2022-07-23T01:35:08;19.65;;;18.02;;
11098;SDS011;12223;42.650;23.364;2022-07-23T01:37:35;18.13;;;16.85;;
11098;SDS011;12223;42.650;23.364;2022-07-23T01:40:03;19.95;;;18.40;;
11098;SDS011;12223;42.650;23.364;2022-07-23T01:42:31;18.20;;;16.95;;
11098;SDS011;12223;42.650;23.364;2022-07-23T01:44:58;20.70;;;19.10;;
11098;SDS011;12223;42.650;23.364;2022-07-23T01:47:25;32.20;;;30.42;;
11098;SDS011;12223;42.650;23.364;2022-07-23T01:49:53;34.03;;;32.28;;
11098;SDS011;12223;42.650;23.364;2022-07-23T01:52:21;30.85;;;28.98;;
11098;SDS011;12223;42.650;23.364;2022-07-23T01:54:48;55.72;;;52.88;;
11098;SDS011;12223;42.650;23.364;2022-07-23T01:57:14;29.58;;;27.85;;
11098;SDS011;12223;42.650;23.364;2022-07-23T01:59:43;19.30;;;17.67;;
11098;SDS011;12223;42.650;23.364;2022-07-23T02:02:10;30.30;;;28.08;;
11098;SDS011;12223;42.650;23.364;2022-07-23T02:04:37;24.27;;;22.30;;
11098;SDS011;12223;42.650;23.364;2022-07-23T02:07:04;22.60;;;20.73;;
11098;SDS011;12223;42.650;23.364;2022-07-23T02:09:32;25.58;;;23.80;;
11098;SDS011;12223;42.650;23.364;2022-07-23T02:11:59;18.98;;;17.38;;
11098;SDS011;12223;42.650;23.364;2022-07-23T02:14:27;20.10;;;18.38;;
11098;SDS011;12223;42.650;23.364;2022-07-23T02:16:55;15.32;;;13.93;;
11098;SDS011;12223;42.650;23.364;2022-07-23T02:19:22;18.98;;;17.38;;
11098;SDS011;12223;42.650;23.364;2022-07-23T02:21:48;29.05;;;27.15;;
11098;SDS011;12223;42.650;23.364;2022-07-23T02:24:15;26.63;;;24.48;;
11098;SDS011;12223;42.650;23.364;2022-07-23T02:26:42;43.45;;;40.88;;
11098;SDS011;12223;42.650;23.364;2022-07-23T02:29:12;28.40;;;26.05;;
11098;SDS011;12223;42.650;23.364;2022-07-23T02:31:39;54.00;;;51.05;;
11098;SDS011;12223;42.650;23.364;2022-07-23T02:34:09;41.58;;;39.22;;
11098;SDS011;12223;42.650;23.364;2022-07-23T02:36:37;69.78;;;66.20;;
11098;SDS011;12223;42.650;23.364;2022-07-23T02:39:03;39.97;;;37.50;;
11098;SDS011;12223;42.650;23.364;2022-07-23T02:41:30;46.47;;;43.55;;
11098;SDS011;12223;42.650;23.364;2022-07-23T02:43:57;21.23;;;19.50;;
11098;SDS011;12223;42.650;23.364;2022-07-23T02:46:23;14.00;;;12.73;;
11098;SDS011;12223;42.650;23.364;2022-07-23T02:48:50;23.27;;;21.60;;
11098;SDS011;12223;42.650;23.364;2022-07-23T02:51:18;15.50;;;13.77;;
11098;SDS011;12223;42.650;23.364;2022-07-23T02:53:45;15.27;;;12.93;;
11098;SDS011;12223;42.650;23.364;2022-07-23T02:56:12;16.00;;;13.95;;
11098;SDS011;12223;42.650;23.364;2022-07-23T02:58:39;15.23;;;13.75;;
11098;SDS011;12223;42.650;23.364;2022-07-23T03:01:06;18.80;;;17.30;;
11098;SDS011;12223;42.650;23.364;2022-07-23T03:03:32;23.13;;;21.55;;
11098;SDS011;12223;42.650;23.364;2022-07-23T03:06:01;27.70;;;25.83;;
11098;SDS011;12223;42.650;23.364;2022-07-23T03:08:30;22.92;;;21.30;;
11098;SDS011;12223;42.650;23.364;2022-07-23T03:14:00;15.70;;;13.02;;
11098;SDS011;12223;42.650;23.364;2022-07-23T03:16:29;31.80;;;29.45;;
11098;SDS011;12223;42.650;23.364;2022-07-23T03:18:56;27.42;;;25.10;;
11098;SDS011;12223;42.650;23.364;2022-07-23T03:21:23;19.15;;;16.70;;
11098;SDS011;12223;42.650;23.364;2022-07-23T03:23:53;18.30;;;16.23;;
11098;SDS011;12223;42.650;23.364;2022-07-23T03:26:20;19.75;;;13.50;;
11098;SDS011;12223;42.650;23.364;2022-07-23T03:28:50;19.30;;;17.30;;
11098;SDS011;12223;42.650;23.364;2022-07-23T03:31:16;20.80;;;18.75;;
11098;SDS011;12223;42.650;23.364;2022-07-23T03:33:44;25.48;;;23.50;;
11098;SDS011;12223;42.650;23.364;2022-07-23T03:36:10;31.77;;;27.30;;
11098;SDS011;12223;42.650;23.364;2022-07-23T03:38:40;19.70;;;10.75;;
11098;SDS011;12223;42.650;23.364;2022-07-23T03:41:10;18.52;;;13.73;;
11098;SDS011;12223;42.650;23.364;2022-07-23T03:43:37;21.70;;;19.83;;
11098;SDS011;12223;42.650;23.364;2022-07-23T03:46:05;15.00;;;12.82;;
11098;SDS011;12223;42.650;23.364;2022-07-23T03:48:32;15.95;;;10.50;;
11098;SDS011;12223;42.650;23.364;2022-07-23T03:51:00;22.30;;;16.63;;
11098;SDS011;12223;42.650;23.364;2022-07-23T03:53:27;31.45;;;28.77;;
11098;SDS011;12223;42.650;23.364;2022-07-23T03:55:55;25.88;;;15.93;;
11098;SDS011;12223;42.650;23.364;2022-07-23T03:58:23;21.40;;;11.57;;
11098;SDS011;12223;42.650;23.364;2022-07-23T04:00:50;16.90;;;11.80;;
11098;SDS011;12223;42.650;23.364;2022-07-23T04:03:17;18.17;;;10.43;;
11098;SDS011;12223;42.650;23.364;2022-07-23T04:05:44;17.92;;;10.77;;
11098;SDS011;12223;42.650;23.364;2022-07-23T04:08:10;20.63;;;11.07;;
11098;SDS011;12223;42.650;23.364;2022-07-23T04:10:37;18.67;;;10.90;;
11098;SDS011;12223;42.650;23.364;2022-07-23T04:13:06;18.42;;;10.32;;
11098;SDS011;12223;42.650;23.364;2022-07-23T04:15:39;17.33;;;10.25;;
11098;SDS011;12223;42.650;23.364;2022-07-23T04:18:05;27.63;;;10.80;;
11098;SDS011;12223;42.650;23.364;2022-07-23T04:20:33;21.70;;;12.63;;
11098;SDS011;12223;42.650;23.364;2022-07-23T04:23:00;19.90;;;10.70;;
11098;SDS011;12223;42.650;23.364;2022-07-23T04:25:29;22.23;;;11.45;;
11098;SDS011;12223;42.650;23.364;2022-07-23T04:27:57;18.48;;;11.05;;
11098;SDS011;12223;42.650;23.364;2022-07-23T04:30:24;18.35;;;11.00;;
11098;SDS011;12223;42.650;23.364;2022-07-23T04:32:53;15.85;;;9.90;;
11098;SDS011;12223;42.650;23.364;2022-07-23T04:35:19;12.85;;;8.93;;
11098;SDS011;12223;42.650;23.364;2022-07-23T04:37:46;11.90;;;9.02;;
11098;SDS011;12223;42.650;23.364;2022-07-23T04:40:13;12.50;;;9.57;;
11098;SDS011;12223;42.650;23.364;2022-07-23T04:42:40;18.23;;;8.93;;
11098;SDS011;12223;42.650;23.364;2022-07-23T04:45:07;16.92;;;8.80;;
11098;SDS011;12223;42.650;23.364;2022-07-23T04:47:34;9.95;;;8.82;;
11098;SDS011;12223;42.650;23.364;2022-07-23T04:50:06;12.02;;;8.95;;
11098;SDS011;12223;42.650;23.364;2022-07-23T04:52:33;14.57;;;10.07;;
11098;SDS011;12223;42.650;23.364;2022-07-23T04:55:00;15.05;;;12.10;;
11098;SDS011;12223;42.650;23.364;2022-07-23T04:57:37;20.13;;;10.35;;
11098;SDS011;12223;42.650;23.364;2022-07-23T05:00:04;20.52;;;9.23;;
11098;SDS011;12223;42.650;23.364;2022-07-23T05:02:31;18.70;;;12.13;;
11098;SDS011;12223;42.650;23.364;2022-07-23T05:04:58;21.33;;;15.45;;
11098;SDS011;12223;42.650;23.364;2022-07-23T05:07:25;15.52;;;12.73;;
11098;SDS011;12223;42.650;23.364;2022-07-23T05:09:52;22.27;;;14.50;;
11098;SDS011;12223;42.650;23.364;2022-07-23T05:12:19;12.68;;;11.32;;
11098;SDS011;12223;42.650;23.364;2022-07-23T05:14:47;13.60;;;10.88;;
11098;SDS011;12223;42.650;23.364;2022-07-23T05:17:15;15.85;;;11.52;;
11098;SDS011;12223;42.650;23.364;2022-07-23T05:19:42;13.98;;;12.63;;
11098;SDS011;12223;42.650;23.364;2022-07-23T05:22:11;13.30;;;11.85;;
11098;SDS011;12223;42.650;23.364;2022-07-23T05:24:37;12.13;;;10.32;;
11098;SDS011;12223;42.650;23.364;2022-07-23T05:27:05;14.40;;;10.15;;
11098;SDS011;12223;42.650;23.364;2022-07-23T05:29:32;14.98;;;10.02;;
11098;SDS011;12223;42.650;23.364;2022-07-23T05:32:02;16.63;;;11.63;;
11098;SDS011;12223;42.650;23.364;2022-07-23T05:34:29;12.27;;;10.88;;
11098;SDS011;12223;42.650;23.364;2022-07-23T05:36:56;11.82;;;9.88;;
11098;SDS011;12223;42.650;23.364;2022-07-23T05:39:22;12.27;;;9.85;;
11098;SDS011;12223;42.650;23.364;2022-07-23T05:41:49;12.30;;;10.80;;
11098;SDS011;12223;42.650;23.364;2022-07-23T05:47:20;18.02;;;11.20;;
11098;SDS011;12223;42.650;23.364;2022-07-23T05:49:47;15.70;;;12.50;;
11098;SDS011;12223;42.650;23.364;2022-07-23T05:52:14;36.50;;;17.23;;
11098;SDS011;12223;42.650;23.364;2022-07-23T05:54:44;17.83;;;11.23;;
11098;SDS011;12223;42.650;23.364;2022-07-23T05:57:11;15.70;;;11.77;;
11098;SDS011;12223;42.650;23.364;2022-07-23T05:59:38;17.05;;;10.77;;
11098;SDS011;12223;42.650;23.364;2022-07-23T06:05:12;15.13;;;11.98;;
11098;SDS011;12223;42.650;23.364;2022-07-23T06:07:39;14.88;;;11.98;;
11098;SDS011;12223;42.650;23.364;2022-07-23T06:10:06;13.43;;;12.07;;
11098;SDS011;12223;42.650;23.364;2022-07-23T06:12:33;15.80;;;12.10;;
11098;SDS011;12223;42.650;23.364;2022-07-23T06:14:59;14.18;;;11.20;;
11098;SDS011;12223;42.650;23.364;2022-07-23T06:17:26;19.23;;;12.38;;
11098;SDS011;12223;42.650;23.364;2022-07-23T06:19:55;19.08;;;11.90;;
11098;SDS011;12223;42.650;23.364;2022-07-23T06:22:23;23.85;;;12.25;;
11098;SDS011;12223;42.650;23.364;2022-07-23T06:24:51;13.50;;;12.18;;
11098;SDS011;12223;42.650;23.364;2022-07-23T06:27:24;13.85;;;11.73;;
11098;SDS011;12223;42.650;23.364;2022-07-23T06:29:50;16.75;;;11.50;;
11098;SDS011;12223;42.650;23.364;2022-07-23T06:32:19;16.98;;;12.52;;
11098;SDS011;12223;42.650;23.364;2022-07-23T06:34:47;13.60;;;11.65;;
11098;SDS011;12223;42.650;23.364;2022-07-23T06:37:13;14.15;;;12.60;;
11098;SDS011;12223;42.650;23.364;2022-07-23T06:42:45;15.75;;;13.07;;
11098;SDS011;12223;42.650;23.364;2022-07-23T06:45:12;16.60;;;12.43;;
11098;SDS011;12223;42.650;23.364;2022-07-23T06:47:43;19.13;;;13.15;;
11098;SDS011;12223;42.650;23.364;2022-07-23T06:56:15;26.25;;;13.98;;
11098;SDS011;12223;42.650;23.364;2022-07-23T06:58:43;14.48;;;12.95;;
11098;SDS011;12223;42.650;23.364;2022-07-23T07:01:12;13.82;;;11.50;;
11098;SDS011;12223;42.650;23.364;2022-07-23T07:03:40;16.35;;;11.57;;
11098;SDS011;12223;42.650;23.364;2022-07-23T07:06:07;13.40;;;10.75;;
11098;SDS011;12223;42.650;23.364;2022-07-23T07:08:34;15.32;;;11.30;;
11098;SDS011;12223;42.650;23.364;2022-07-23T07:11:03;13.65;;;12.30;;
11098;SDS011;12223;42.650;23.364;2022-07-23T07:13:29;12.35;;;11.05;;
11098;SDS011;12223;42.650;23.364;2022-07-23T07:16:00;13.40;;;11.00;;
11098;SDS011;12223;42.650;23.364;2022-07-23T07:18:27;14.07;;;11.70;;
11098;SDS011;12223;42.650;23.364;2022-07-23T07:20:54;12.55;;;11.20;;
11098;SDS011;12223;42.650;23.364;2022-07-23T07:23:22;13.65;;;12.20;;
11098;SDS011;12223;42.650;23.364;2022-07-23T07:25:49;19.73;;;11.00;;
11098;SDS011;12223;42.650;23.364;2022-07-23T07:28:15;16.23;;;10.98;;
11098;SDS011;12223;42.650;23.364;2022-07-23T07:30:42;12.82;;;11.50;;
11098;SDS011;12223;42.650;23.364;2022-07-23T07:33:10;14.45;;;11.98;;
11098;SDS011;12223;42.650;23.364;2022-07-23T07:35:37;13.90;;;12.30;;
11098;SDS011;12223;42.650;23.364;2022-07-23T07:38:04;12.25;;;11.05;;
11098;SDS011;12223;42.650;23.364;2022-07-23T07:40:31;12.93;;;10.35;;
11098;SDS011;12223;42.650;23.364;2022-07-23T07:42:57;12.65;;;10.90;;
11098;SDS011;12223;42.650;23.364;2022-07-23T07:45:24;12.77;;;10.95;;
11098;SDS011;12223;42.650;23.364;2022-07-23T07:47:51;12.20;;;10.90;;
11098;SDS011;12223;42.650;23.364;2022-07-23T07:50:20;12.48;;;11.25;;
11098;SDS011;12223;42.650;23.364;2022-07-23T07:52:46;16.15;;;10.80;;
11098;SDS011;12223;42.650;23.364;2022-07-23T07:55:13;13.82;;;10.77;;
11098;SDS011;12223;42.650;23.364;2022-07-23T07:57:40;14.48;;;10.68;;
11098;SDS011;12223;42.650;23.364;2022-07-23T08:00:08;12.23;;;10.75;;
11098;SDS011;12223;42.650;23.364;2022-07-23T08:02:42;15.82;;;10.55;;
11098;SDS011;12223;42.650;23.364;2022-07-23T08:05:08;13.52;;;10.25;;
11098;SDS011;12223;42.650;23.364;2022-07-23T08:07:37;13.77;;;12.20;;
11098;SDS011;12223;42.650;23.364;2022-07-23T08:10:05;12.27;;;11.02;;
11098;SDS011;12223;42.650;23.364;2022-07-23T08:12:39;15.38;;;11.63;;
11098;SDS011;12223;42.650;23.364;2022-07-23T08:15:06;13.68;;;11.00;;
11098;SDS011;12223;42.650;23.364;2022-07-23T08:17:33;13.05;;;10.88;;
11098;SDS011;12223;42.650;23.364;2022-07-23T08:20:00;12.93;;;11.00;;
11098;SDS011;12223;42.650;23.364;2022-07-23T08:25:10;12.30;;;10.98;;
11098;SDS011;12223;42.650;23.364;2022-07-23T08:27:36;13.82;;;11.90;;
11098;SDS011;12223;42.650;23.364;2022-07-23T08:30:04;13.80;;;11.60;;
11098;SDS011;12223;42.650;23.364;2022-07-23T08:32:30;13.57;;;12.13;;
11098;SDS011;12223;42.650;23.364;2022-07-23T08:34:57;15.38;;;12.38;;
11098;SDS011;12223;42.650;23.364;2022-07-23T08:37:24;13.82;;;11.32;;
11098;SDS011;12223;42.650;23.364;2022-07-23T08:39:51;13.80;;;11.25;;
11098;SDS011;12223;42.650;23.364;2022-07-23T08:42:19;13.38;;;11.82;;
11098;SDS011;12223;42.650;23.364;2022-07-23T08:44:47;13.45;;;11.90;;
11098;SDS011;12223;42.650;23.364;2022-07-23T08:47:14;19.30;;;12.98;;
11098;SDS011;12223;42.650;23.364;2022-07-23T08:49:41;16.85;;;13.40;;
11098;SDS011;12223;42.650;23.364;2022-07-23T08:52:08;15.10;;;12.95;;
11098;SDS011;12223;42.650;23.364;2022-07-23T08:54:35;15.80;;;12.20;;
11098;SDS011;12223;42.650;23.364;2022-07-23T08:57:01;14.88;;;12.18;;
11098;SDS011;12223;42.650;23.364;2022-07-23T08:59:31;14.90;;;12.82;;
11098;SDS011;12223;42.650;23.364;2022-07-23T09:01:58;14.77;;;11.88;;
11098;SDS011;12223;42.650;23.364;2022-07-23T09:04:25;16.75;;;12.43;;
11098;SDS011;12223;42.650;23.364;2022-07-23T09:06:52;16.33;;;12.20;;
11098;SDS011;12223;42.650;23.364;2022-07-23T09:09:19;14.63;;;12.57;;
11098;SDS011;12223;42.650;23.364;2022-07-23T09:11:46;15.95;;;11.77;;
11098;SDS011;12223;42.650;23.364;2022-07-23T09:14:13;19.95;;;13.55;;
11098;SDS011;12223;42.650;23.364;2022-07-23T09:16:41;14.60;;;12.38;;
11098;SDS011;12223;42.650;23.364;2022-07-23T09:19:09;14.02;;;12.75;;
11098;SDS011;12223;42.650;23.364;2022-07-23T09:21:38;15.80;;;13.90;;
11098;SDS011;12223;42.650;23.364;2022-07-23T09:24:05;16.70;;;14.55;;
11098;SDS011;12223;42.650;23.364;2022-07-23T09:26:32;17.25;;;15.48;;
11098;SDS011;12223;42.650;23.364;2022-07-23T09:29:04;18.70;;;17.00;;
11098;SDS011;12223;42.650;23.364;2022-07-23T09:31:32;23.38;;;16.63;;
11098;SDS011;12223;42.650;23.364;2022-07-23T09:34:11;22.25;;;15.63;;
11098;SDS011;12223;42.650;23.364;2022-07-23T09:36:38;13.88;;;12.48;;
11098;SDS011;12223;42.650;23.364;2022-07-23T09:39:05;14.57;;;13.07;;
11098;SDS011;12223;42.650;23.364;2022-07-23T09:41:36;18.05;;;12.85;;
11098;SDS011;12223;42.650;23.364;2022-07-23T09:44:12;22.73;;;12.57;;
11098;SDS011;12223;42.650;23.364;2022-07-23T09:46:39;26.35;;;14.90;;
11098;SDS011;12223;42.650;23.364;2022-07-23T09:49:12;18.85;;;12.25;;
11098;SDS011;12223;42.650;23.364;2022-07-23T09:51:43;12.02;;;10.85;;
11098;SDS011;12223;42.650;23.364;2022-07-23T09:54:20;16.25;;;11.93;;
11098;SDS011;12223;42.650;23.364;2022-07-23T09:56:47;16.70;;;10.88;;
11098;SDS011;12223;42.650;23.364;2022-07-23T09:59:14;18.85;;;12.00;;
11098;SDS011;12223;42.650;23.364;2022-07-23T10:01:42;12.63;;;10.95;;
11098;SDS011;12223;42.650;23.364;2022-07-23T10:04:09;15.75;;;10.85;;
11098;SDS011;12223;42.650;23.364;2022-07-23T10:06:38;11.48;;;10.38;;
11098;SDS011;12223;42.650;23.364;2022-07-23T10:09:05;13.95;;;10.68;;
11098;SDS011;12223;42.650;23.364;2022-07-23T10:11:32;15.30;;;11.00;;
11098;SDS011;12223;42.650;23.364;2022-07-23T10:13:59;13.55;;;11.00;;
11098;SDS011;12223;42.650;23.364;2022-07-23T10:16:27;16.60;;;10.48;;
11098;SDS011;12223;42.650;23.364;2022-07-23T10:18:54;15.50;;;12.02;;
11098;SDS011;12223;42.650;23.364;2022-07-23T10:21:27;17.33;;;15.90;;
11098;SDS011;12223;42.650;23.364;2022-07-23T10:24:04;19.25;;;12.40;;
11098;SDS011;12223;42.650;23.364;2022-07-23T10:26:36;17.23;;;15.15;;
11098;SDS011;12223;42.650;23.364;2022-07-23T10:29:10;18.00;;;11.75;;
11098;SDS011;12223;42.650;23.364;2022-07-23T10:31:41;17.40;;;10.85;;
11098;SDS011;12223;42.650;23.364;2022-07-23T10:34:12;13.15;;;9.93;;
11098;SDS011;12223;42.650;23.364;2022-07-23T10:36:42;13.05;;;9.75;;
11098;SDS011;12223;42.650;23.364;2022-07-23T10:39:13;11.40;;;10.27;;
11098;SDS011;12223;42.650;23.364;2022-07-23T10:41:41;10.70;;;9.38;;
11098;SDS011;12223;42.650;23.364;2022-07-23T10:44:09;12.05;;;10.15;;
11098;SDS011;12223;42.650;23.364;2022-07-23T10:46:35;14.60;;;9.80;;
11098;SDS011;12223;42.650;23.364;2022-07-23T10:49:21;16.70;;;9.90;;
11098;SDS011;12223;42.650;23.364;2022-07-23T10:54:35;22.73;;;10.65;;
11098;SDS011;12223;42.650;23.364;2022-07-23T10:57:05;12.38;;;9.32;;
11098;SDS011;12223;42.650;23.364;2022-07-23T11:02:20;15.13;;;9.38;;
11098;SDS011;12223;42.650;23.364;2022-07-23T11:04:47;15.27;;;10.15;;
11098;SDS011;12223;42.650;23.364;2022-07-23T11:07:14;14.50;;;10.07;;
11098;SDS011;12223;42.650;23.364;2022-07-23T11:09:43;18.65;;;9.10;;
11098;SDS011;12223;42.650;23.364;2022-07-23T11:15:05;15.93;;;9.35;;
11098;SDS011;12223;42.650;23.364;2022-07-23T11:17:33;13.15;;;9.02;;
11098;SDS011;12223;42.650;23.364;2022-07-23T11:20:16;14.20;;;8.70;;
11098;SDS011;12223;42.650;23.364;2022-07-23T11:22:47;15.30;;;8.85;;
11098;SDS011;12223;42.650;23.364;2022-07-23T11:25:28;12.63;;;8.98;;
11098;SDS011;12223;42.650;23.364;2022-07-23T11:27:55;12.98;;;9.20;;
11098;SDS011;12223;42.650;23.364;2022-07-23T11:30:37;13.75;;;10.25;;
11098;SDS011;12223;42.650;23.364;2022-07-23T11:33:15;13.02;;;10.13;;
11098;SDS011;12223;42.650;23.364;2022-07-23T11:35:43;15.95;;;9.98;;
11098;SDS011;12223;42.650;23.364;2022-07-23T11:38:11;18.83;;;9.70;;
11098;SDS011;12223;42.650;23.364;2022-07-23T11:40:41;12.75;;;9.25;;
11098;SDS011;12223;42.650;23.364;2022-07-23T11:43:08;11.10;;;9.95;;
11098;SDS011;12223;42.650;23.364;2022-07-23T11:45:35;14.98;;;9.73;;
11098;SDS011;12223;42.650;23.364;2022-07-23T11:48:03;13.27;;;9.32;;
11098;SDS011;12223;42.650;23.364;2022-07-23T11:50:30;21.25;;;10.07;;
11098;SDS011;12223;42.650;23.364;2022-07-23T11:52:57;15.38;;;9.55;;
11098;SDS011;12223;42.650;23.364;2022-07-23T11:55:23;17.80;;;9.73;;
11098;SDS011;12223;42.650;23.364;2022-07-23T11:57:52;15.13;;;9.48;;
11098;SDS011;12223;42.650;23.364;2022-07-23T12:00:20;15.68;;;9.57;;
11098;SDS011;12223;42.650;23.364;2022-07-23T12:02:47;13.75;;;9.73;;
11098;SDS011;12223;42.650;23.364;2022-07-23T12:05:14;14.55;;;9.55;;
11098;SDS011;12223;42.650;23.364;2022-07-23T12:07:42;21.60;;;10.25;;
11098;SDS011;12223;42.650;23.364;2022-07-23T12:10:10;15.55;;;9.52;;
11098;SDS011;12223;42.650;23.364;2022-07-23T12:12:37;13.73;;;10.18;;
11098;SDS011;12223;42.650;23.364;2022-07-23T12:15:06;18.27;;;9.13;;
11098;SDS011;12223;42.650;23.364;2022-07-23T12:17:34;22.02;;;10.00;;
11098;SDS011;12223;42.650;23.364;2022-07-23T12:20:01;15.18;;;9.85;;
11098;SDS011;12223;42.650;23.364;2022-07-23T12:22:33;18.80;;;10.55;;
11098;SDS011;12223;42.650;23.364;2022-07-23T12:25:01;15.00;;;9.32;;
11098;SDS011;12223;42.650;23.364;2022-07-23T12:27:29;16.63;;;9.90;;
11098;SDS011;12223;42.650;23.364;2022-07-23T12:29:56;18.13;;;9.13;;
11098;SDS011;12223;42.650;23.364;2022-07-23T12:32:24;17.08;;;9.60;;
11098;SDS011;12223;42.650;23.364;2022-07-23T12:35:01;14.50;;;10.02;;
11098;SDS011;12223;42.650;23.364;2022-07-23T12:37:30;14.13;;;9.85;;
11098;SDS011;12223;42.650;23.364;2022-07-23T12:39:57;20.00;;;11.13;;
11098;SDS011;12223;42.650;23.364;2022-07-23T12:42:23;13.65;;;9.43;;
11098;SDS011;12223;42.650;23.364;2022-07-23T12:45:03;15.77;;;9.52;;
11098;SDS011;12223;42.650;23.364;2022-07-23T12:47:31;18.42;;;10.18;;
11098;SDS011;12223;42.650;23.364;2022-07-23T12:50:30;16.85;;;10.65;;
11098;SDS011;12223;42.650;23.364;2022-07-23T12:53:01;13.90;;;9.07;;
11098;SDS011;12223;42.650;23.364;2022-07-23T12:55:28;15.00;;;10.73;;
11098;SDS011;12223;42.650;23.364;2022-07-23T12:58:02;14.88;;;8.98;;
11098;SDS011;12223;42.650;23.364;2022-07-23T13:00:29;21.38;;;10.20;;
11098;SDS011;12223;42.650;23.364;2022-07-23T13:02:57;15.43;;;10.55;;
11098;SDS011;12223;42.650;23.364;2022-07-23T13:05:24;20.52;;;11.02;;
11098;SDS011;12223;42.650;23.364;2022-07-23T13:07:50;15.43;;;10.00;;
11098;SDS011;12223;42.650;23.364;2022-07-23T13:10:17;13.30;;;9.55;;
11098;SDS011;12223;42.650;23.364;2022-07-23T13:12:43;12.43;;;9.00;;
11098;SDS011;12223;42.650;23.364;2022-07-23T13:15:10;15.55;;;8.88;;
11098;SDS011;12223;42.650;23.364;2022-07-23T13:17:36;18.52;;;9.07;;
11098;SDS011;12223;42.650;23.364;2022-07-23T13:20:05;16.67;;;8.07;;
11098;SDS011;12223;42.650;23.364;2022-07-23T13:22:32;19.05;;;8.93;;
11098;SDS011;12223;42.650;23.364;2022-07-23T13:24:58;22.42;;;8.13;;
11098;SDS011;12223;42.650;23.364;2022-07-23T13:27:25;16.10;;;8.65;;
11098;SDS011;12223;42.650;23.364;2022-07-23T13:29:52;13.90;;;9.10;;
11098;SDS011;12223;42.650;23.364;2022-07-23T13:32:18;18.23;;;9.20;;
11098;SDS011;12223;42.650;23.364;2022-07-23T13:34:45;18.13;;;8.95;;
11098;SDS011;12223;42.650;23.364;2022-07-23T13:37:13;17.42;;;10.07;;
11098;SDS011;12223;42.650;23.364;2022-07-23T13:39:39;19.88;;;11.43;;
11098;SDS011;12223;42.650;23.364;2022-07-23T13:42:06;15.82;;;11.45;;
11098;SDS011;12223;42.650;23.364;2022-07-23T13:44:33;16.83;;;12.20;;
11098;SDS011;12223;42.650;23.364;2022-07-23T13:47:00;21.95;;;13.23;;
11098;SDS011;12223;42.650;23.364;2022-07-23T13:49:26;23.85;;;14.57;;
11098;SDS011;12223;42.650;23.364;2022-07-23T13:51:53;19.27;;;11.00;;
11098;SDS011;12223;42.650;23.364;2022-07-23T13:54:21;18.67;;;10.45;;
11098;SDS011;12223;42.650;23.364;2022-07-23T13:56:47;17.80;;;11.07;;
11098;SDS011;12223;42.650;23.364;2022-07-23T13:59:14;15.55;;;9.90;;
11098;SDS011;12223;42.650;23.364;2022-07-23T14:01:40;17.88;;;10.15;;
11098;SDS011;12223;42.650;23.364;2022-07-23T14:04:07;14.02;;;9.05;;
11098;SDS011;12223;42.650;23.364;2022-07-23T14:06:33;14.60;;;8.65;;
11098;SDS011;12223;42.650;23.364;2022-07-23T14:09:00;15.65;;;9.60;;
11098;SDS011;12223;42.650;23.364;2022-07-23T14:11:28;16.60;;;9.48;;
11098;SDS011;12223;42.650;23.364;2022-07-23T14:13:55;16.08;;;9.32;;
11098;SDS011;12223;42.650;23.364;2022-07-23T14:16:23;15.70;;;9.50;;
11098;SDS011;12223;42.650;23.364;2022-07-23T14:18:50;17.63;;;8.73;;
11098;SDS011;12223;42.650;23.364;2022-07-23T14:21:16;17.35;;;9.18;;
11098;SDS011;12223;42.650;23.364;2022-07-23T14:23:43;13.25;;;8.90;;
11098;SDS011;12223;42.650;23.364;2022-07-23T14:26:09;16.00;;;8.95;;
11098;SDS011;12223;42.650;23.364;2022-07-23T14:28:39;15.27;;;9.32;;
11098;SDS011;12223;42.650;23.364;2022-07-23T14:31:06;16.27;;;9.10;;
11098;SDS011;12223;42.650;23.364;2022-07-23T14:33:32;19.48;;;9.45;;
11098;SDS011;12223;42.650;23.364;2022-07-23T14:35:59;15.65;;;10.02;;
11098;SDS011;12223;42.650;23.364;2022-07-23T14:38:25;18.33;;;8.70;;
11098;SDS011;12223;42.650;23.364;2022-07-23T14:40:52;16.00;;;10.52;;
11098;SDS011;12223;42.650;23.364;2022-07-23T14:49:29;16.08;;;9.05;;
11098;SDS011;12223;42.650;23.364;2022-07-23T14:51:56;13.35;;;8.48;;
11098;SDS011;12223;42.650;23.364;2022-07-23T14:54:23;14.80;;;9.25;;
11098;SDS011;12223;42.650;23.364;2022-07-23T14:56:50;11.50;;;8.88;;
11098;SDS011;12223;42.650;23.364;2022-07-23T14:59:17;12.40;;;9.20;;
11098;SDS011;12223;42.650;23.364;2022-07-23T15:01:44;15.73;;;9.43;;
11098;SDS011;12223;42.650;23.364;2022-07-23T15:07:14;13.65;;;10.50;;
11098;SDS011;12223;42.650;23.364;2022-07-23T15:09:40;14.63;;;10.25;;
11098;SDS011;12223;42.650;23.364;2022-07-23T15:12:07;13.82;;;9.93;;